createdAt,value
2022-12-11T00:00:52.666Z,64.20
2022-12-11T00:03:39.868Z,64.40
2022-12-11T00:06:11.901Z,67.50
2022-12-11T00:08:39.887Z,63.25
2022-12-11T00:11:13.157Z,56.05
2022-12-11T00:13:40.309Z,63.13
2022-12-11T00:16:07.642Z,62.67
2022-12-11T00:18:34.840Z,63.17
2022-12-11T00:21:06.764Z,60.63
2022-12-11T00:23:37.455Z,63.53
2022-12-11T00:26:09.575Z,72.72
2022-12-11T00:28:36.821Z,65.85
2022-12-11T00:31:09.047Z,61.92
2022-12-11T00:33:36.122Z,66.82
2022-12-11T00:36:03.907Z,56.85
2022-12-11T00:38:31.026Z,60.22
2022-12-11T00:40:59.276Z,61.67
2022-12-11T00:43:26.557Z,70.63
2022-12-11T00:45:53.437Z,62.55
2022-12-11T00:48:20.774Z,63.40
2022-12-11T00:50:47.585Z,63.28
2022-12-11T00:53:15.127Z,60.75
2022-12-11T00:55:43.484Z,55.22
2022-12-11T00:58:12.474Z,61.28
2022-12-11T01:00:40.384Z,55.85
2022-12-11T01:03:08.277Z,57.00
2022-12-11T01:05:35.906Z,53.83
2022-12-11T01:08:03.564Z,62.55
2022-12-11T01:10:30.926Z,54.88
2022-12-11T01:13:02.574Z,61.17
2022-12-11T01:15:32.127Z,56.65
2022-12-11T01:17:59.304Z,57.40
2022-12-11T01:20:28.043Z,60.95
2022-12-11T01:22:57.146Z,61.40
2022-12-11T01:25:24.699Z,64.53
2022-12-11T01:27:53.908Z,52.95
2022-12-11T01:30:23.263Z,52.80
2022-12-11T01:32:50.528Z,57.05
2022-12-11T01:35:18.769Z,49.83
2022-12-11T01:37:46.024Z,51.20
2022-12-11T01:40:18.898Z,50.35
2022-12-11T01:42:46.270Z,55.10
2022-12-11T01:45:23.800Z,54.60
2022-12-11T01:48:00.628Z,56.22
2022-12-11T01:50:29.187Z,49.90
2022-12-11T01:52:56.402Z,53.55
2022-12-11T01:55:23.496Z,50.53
2022-12-11T01:57:51.969Z,46.20
2022-12-11T02:00:20.010Z,55.42
2022-12-11T02:02:47.199Z,57.15
2022-12-11T02:05:14.190Z,47.97
2022-12-11T02:07:46.429Z,54.63
2022-12-11T02:10:14.018Z,56.97
2022-12-11T02:13:00.834Z,51.72
2022-12-11T02:15:35.833Z,57.50
2022-12-11T02:18:08.711Z,52.38
2022-12-11T02:20:41.974Z,54.47
2022-12-11T02:23:12.624Z,56.65
2022-12-11T02:26:18.857Z,48.60
2022-12-11T02:28:51.011Z,55.65
2022-12-11T02:31:34.720Z,51.35
2022-12-11T02:34:12.597Z,44.92
2022-12-11T02:36:43.971Z,55.00
2022-12-11T02:39:15.052Z,54.70
2022-12-11T02:41:47.992Z,48.75
2022-12-11T02:44:17.825Z,40.60
2022-12-11T02:46:45.780Z,53.88
2022-12-11T02:49:15.142Z,48.30
2022-12-11T02:51:43.312Z,50.90
2022-12-11T02:54:20.926Z,50.90
2022-12-11T02:56:55.901Z,50.50
2022-12-11T02:59:32.967Z,54.88
2022-12-11T03:02:00.331Z,47.47
2022-12-11T03:04:28.875Z,54.28
2022-12-11T03:07:01.536Z,53.03
2022-12-11T03:09:28.752Z,53.83
2022-12-11T03:11:55.722Z,51.35
2022-12-11T03:14:22.865Z,49.50
2022-12-11T03:17:02.034Z,43.35
2022-12-11T03:19:40.203Z,46.40
2022-12-11T03:22:17.907Z,44.35
2022-12-11T03:25:01.820Z,49.25
2022-12-11T03:27:42.570Z,46.72
2022-12-11T03:30:18.970Z,52.60
2022-12-11T03:33:06.344Z,43.90
2022-12-11T03:35:38.891Z,39.78
2022-12-11T03:38:11.521Z,43.50
2022-12-11T03:40:42.243Z,40.63
2022-12-11T03:43:11.413Z,40.25
2022-12-11T03:45:41.220Z,44.28
2022-12-11T03:48:09.901Z,39.40
2022-12-11T03:50:38.222Z,39.10
2022-12-11T03:53:05.704Z,31.27
2022-12-11T03:55:34.615Z,40.20
2022-12-11T03:58:01.521Z,38.47
2022-12-11T04:00:29.451Z,39.58
2022-12-11T04:03:15.139Z,43.65
2022-12-11T04:06:00.208Z,40.25
2022-12-11T04:08:27.733Z,39.28
2022-12-11T04:11:13.534Z,26.27
2022-12-11T04:13:42.023Z,42.63
2022-12-11T04:16:09.877Z,34.85
2022-12-11T04:18:55.500Z,41.40
2022-12-11T04:21:40.654Z,39.67
2022-12-11T04:24:16.838Z,41.65
2022-12-11T04:26:45.526Z,31.63
2022-12-11T04:29:13.893Z,43.55
2022-12-11T04:31:40.769Z,44.67
2022-12-11T04:34:08.233Z,41.08
2022-12-11T04:36:35.083Z,37.95
2022-12-11T04:39:02.190Z,42.95
2022-12-11T04:41:29.060Z,43.67
2022-12-11T04:43:56.192Z,44.35
2022-12-11T04:46:24.451Z,41.63
2022-12-11T04:48:57.445Z,40.75
2022-12-11T04:51:25.380Z,38.28
2022-12-11T04:53:52.826Z,37.30
2022-12-11T04:56:20.069Z,44.45
2022-12-11T04:58:48.398Z,41.75
2022-12-11T05:01:18.922Z,44.60
2022-12-11T05:03:47.127Z,28.40
2022-12-11T05:06:14.314Z,34.47
2022-12-11T05:08:43.659Z,37.75
2022-12-11T05:11:13.353Z,40.35
2022-12-11T05:13:41.201Z,36.13
2022-12-11T05:16:12.648Z,35.47
2022-12-11T05:18:40.016Z,38.15
2022-12-11T05:21:09.815Z,37.35
2022-12-11T05:23:37.435Z,33.92
2022-12-11T05:26:17.089Z,46.95
2022-12-11T05:28:45.486Z,33.10
2022-12-11T05:31:20.030Z,38.17
2022-12-11T05:33:50.212Z,29.23
2022-12-11T05:36:22.446Z,30.38
2022-12-11T05:38:50.355Z,34.65
2022-12-11T05:41:19.866Z,32.38
2022-12-11T05:43:47.361Z,32.00
2022-12-11T05:46:25.351Z,35.28
2022-12-11T05:48:56.295Z,27.55
2022-12-11T05:51:23.853Z,30.25
2022-12-11T05:53:52.815Z,30.63
2022-12-11T05:56:23.205Z,35.35
2022-12-11T05:58:50.854Z,36.17
2022-12-11T06:01:39.469Z,37.38
2022-12-11T06:04:09.713Z,27.35
2022-12-11T06:06:36.953Z,28.08
2022-12-11T06:09:05.441Z,22.25
2022-12-11T06:11:33.903Z,23.95
2022-12-11T06:14:03.010Z,22.20
2022-12-11T06:16:30.670Z,25.42
2022-12-11T06:18:58.850Z,25.88
2022-12-11T06:21:31.371Z,27.30
2022-12-11T06:24:01.008Z,21.50
2022-12-11T06:26:28.210Z,21.23
2022-12-11T06:28:55.363Z,24.58
2022-12-11T06:31:22.426Z,22.50
2022-12-11T06:33:49.711Z,26.38
2022-12-11T06:36:20.985Z,28.20
2022-12-11T06:38:48.944Z,24.98
2022-12-11T06:41:16.602Z,30.02
2022-12-11T06:43:44.058Z,28.52
2022-12-11T06:46:14.244Z,26.98
2022-12-11T06:48:42.396Z,25.70
2022-12-11T06:51:12.530Z,25.25
2022-12-11T06:53:40.326Z,18.63
2022-12-11T06:56:10.465Z,23.00
2022-12-11T06:58:38.513Z,24.70
2022-12-11T07:01:18.051Z,21.45
2022-12-11T07:03:45.950Z,25.85
2022-12-11T07:06:12.960Z,26.17
2022-12-11T07:08:40.571Z,26.05
2022-12-11T07:11:10.421Z,24.75
2022-12-11T07:13:37.634Z,26.60
2022-12-11T07:16:10.609Z,20.63
2022-12-11T07:18:43.305Z,20.40
2022-12-11T07:21:12.664Z,18.33
2022-12-11T07:23:40.605Z,17.58
2022-12-11T07:26:10.661Z,28.40
2022-12-11T07:28:38.196Z,18.70
2022-12-11T07:31:10.356Z,21.00
2022-12-11T07:33:37.943Z,24.67
2022-12-11T07:36:06.926Z,19.30
2022-12-11T07:38:34.458Z,17.70
2022-12-11T07:41:03.053Z,26.33
2022-12-11T07:43:30.210Z,23.02
2022-12-11T07:46:01.954Z,22.90
2022-12-11T07:48:29.652Z,22.60
2022-12-11T07:50:56.799Z,27.05
2022-12-11T07:53:23.883Z,23.80
2022-12-11T07:55:50.671Z,31.95
2022-12-11T07:58:17.805Z,23.30
2022-12-11T08:00:45.459Z,26.15
2022-12-11T08:03:12.563Z,28.33
2022-12-11T08:05:39.629Z,28.00
2022-12-11T08:08:06.769Z,24.13
2022-12-11T08:10:33.601Z,28.48
2022-12-11T08:13:00.772Z,20.83
2022-12-11T08:15:27.637Z,22.77
2022-12-11T08:17:54.752Z,25.80
2022-12-11T08:20:21.756Z,29.05
2022-12-11T08:22:48.862Z,29.48
2022-12-11T08:25:15.923Z,29.90
2022-12-11T08:27:43.092Z,35.35
2022-12-11T08:30:10.421Z,24.20
2022-12-11T08:32:37.628Z,25.13
2022-12-11T08:35:04.777Z,27.20
2022-12-11T08:37:31.893Z,28.20
2022-12-11T08:39:58.897Z,27.52
2022-12-11T08:42:25.987Z,22.40
2022-12-11T08:44:52.826Z,27.23
2022-12-11T08:47:20.741Z,25.38
2022-12-11T08:49:47.574Z,24.88
2022-12-11T08:52:14.626Z,23.13
2022-12-11T08:54:41.847Z,26.48
2022-12-11T08:57:08.921Z,28.10
2022-12-11T08:59:35.838Z,27.60
2022-12-11T09:02:02.915Z,25.95
2022-12-11T09:04:30.030Z,29.08
2022-12-11T09:06:57.294Z,23.52
2022-12-11T09:09:24.410Z,25.38
2022-12-11T09:11:51.654Z,23.30
2022-12-11T09:14:18.874Z,25.05
2022-12-11T09:16:46.057Z,23.80
2022-12-11T09:19:14.944Z,20.88
2022-12-11T09:21:43.619Z,26.15
2022-12-11T09:24:12.543Z,21.13
2022-12-11T09:26:40.533Z,25.10
2022-12-11T09:29:07.903Z,26.35
2022-12-11T09:31:37.241Z,25.80
2022-12-11T09:34:07.645Z,25.55
2022-12-11T09:36:35.559Z,25.27
2022-12-11T09:39:04.400Z,18.95
2022-12-11T09:42:11.150Z,21.23
2022-12-11T09:44:48.555Z,26.35
2022-12-11T09:47:42.839Z,21.25
2022-12-11T09:50:09.845Z,21.80
2022-12-11T09:53:12.614Z,15.25
2022-12-11T09:55:48.276Z,20.42
2022-12-11T09:58:37.912Z,25.90
2022-12-11T10:01:34.754Z,24.27
2022-12-11T10:04:20.454Z,21.60
2022-12-11T10:06:57.955Z,24.20
2022-12-11T10:09:42.063Z,21.13
2022-12-11T10:12:20.187Z,20.85
2022-12-11T10:14:53.115Z,24.80
2022-12-11T10:17:25.495Z,25.00
2022-12-11T10:19:53.662Z,22.20
2022-12-11T10:22:24.576Z,24.80
2022-12-11T10:25:10.856Z,22.60
2022-12-11T10:27:39.930Z,24.23
2022-12-11T10:30:13.045Z,21.73
2022-12-11T10:33:04.293Z,24.63
2022-12-11T10:35:36.928Z,21.67
2022-12-11T10:38:20.844Z,28.55
2022-12-11T10:40:57.368Z,25.23
2022-12-11T10:43:34.930Z,22.20
2022-12-11T10:46:02.843Z,23.13
2022-12-11T10:48:29.981Z,25.80
2022-12-11T10:51:00.951Z,18.17
2022-12-11T10:53:29.142Z,23.25
2022-12-11T10:55:58.588Z,19.45
2022-12-11T10:58:29.155Z,25.95
2022-12-11T11:01:17.075Z,25.13
2022-12-11T11:04:06.849Z,17.50
2022-12-11T11:06:34.111Z,23.98
2022-12-11T11:09:02.217Z,21.92
2022-12-11T11:11:33.883Z,19.55
2022-12-11T11:14:14.650Z,25.25
2022-12-11T11:16:45.841Z,23.50
2022-12-11T11:19:24.319Z,19.90
2022-12-11T11:21:55.840Z,20.23
2022-12-11T11:27:13.666Z,16.05
2022-12-11T11:29:42.071Z,20.25
2022-12-11T11:32:34.189Z,22.02
2022-12-11T11:35:13.281Z,19.33
2022-12-11T11:37:44.487Z,21.33
2022-12-11T11:40:13.483Z,24.52
2022-12-11T11:43:04.836Z,21.13
2022-12-11T11:45:40.633Z,19.42
2022-12-11T11:48:20.734Z,18.73
2022-12-11T11:50:50.628Z,21.92
2022-12-11T11:53:30.563Z,12.75
2022-12-11T11:56:03.647Z,11.48
2022-12-11T11:58:41.809Z,17.20
2022-12-11T12:01:15.111Z,19.23
2022-12-11T12:03:42.361Z,18.70
2022-12-11T12:06:27.664Z,19.08
2022-12-11T12:09:39.429Z,18.35
2022-12-11T12:12:35.813Z,14.68
2022-12-11T12:15:18.482Z,22.48
2022-12-11T12:17:55.133Z,21.10
2022-12-11T12:20:32.417Z,18.85
2022-12-11T12:23:36.492Z,21.17
2022-12-11T12:26:14.266Z,14.15
2022-12-11T12:28:49.056Z,17.52
2022-12-11T12:31:24.462Z,17.85
2022-12-11T12:34:14.400Z,20.65
2022-12-11T12:36:53.711Z,16.33
2022-12-11T12:39:54.223Z,21.02
2022-12-11T12:42:30.889Z,23.20
2022-12-11T12:45:07.240Z,22.38
2022-12-11T12:47:36.803Z,26.73
2022-12-11T12:50:10.423Z,26.23
2022-12-11T12:52:40.052Z,23.95
2022-12-11T12:55:22.775Z,22.70
2022-12-11T12:58:00.513Z,19.40
2022-12-11T13:00:33.540Z,27.33
2022-12-11T13:03:17.195Z,26.10
2022-12-11T13:06:00.039Z,19.50
2022-12-11T13:08:31.146Z,30.23
2022-12-11T13:11:07.621Z,24.60
2022-12-11T13:13:51.550Z,24.30
2022-12-11T13:16:25.832Z,30.45
2022-12-11T13:21:26.186Z,23.02
2022-12-11T13:23:54.213Z,30.35
2022-12-11T13:26:32.785Z,23.45
2022-12-11T13:28:59.962Z,17.92
2022-12-11T13:31:36.497Z,23.05
2022-12-11T13:34:24.458Z,22.30
2022-12-11T13:36:54.126Z,22.50
2022-12-11T13:39:28.042Z,23.52
2022-12-11T13:42:20.948Z,25.95
2022-12-11T13:44:49.299Z,23.35
2022-12-11T13:47:19.295Z,20.60
2022-12-11T13:49:53.396Z,21.65
2022-12-11T13:52:25.909Z,23.23
2022-12-11T13:54:55.760Z,19.63
2022-12-11T13:57:25.956Z,29.73
2022-12-11T13:59:55.582Z,27.53
2022-12-11T14:02:42.509Z,30.00
2022-12-11T14:05:13.113Z,26.58
2022-12-11T14:07:50.645Z,26.65
2022-12-11T14:10:24.460Z,19.33
2022-12-11T14:13:08.306Z,23.05
2022-12-11T14:15:36.472Z,24.90
2022-12-11T14:18:05.592Z,21.80
2022-12-11T14:20:34.947Z,18.38
2022-12-11T14:23:22.240Z,21.80
2022-12-11T14:26:04.001Z,19.58
2022-12-11T14:28:38.121Z,24.23
2022-12-11T14:31:06.590Z,23.00
2022-12-11T14:33:54.433Z,23.45
2022-12-11T14:36:23.641Z,20.48
2022-12-11T14:39:03.161Z,23.60
2022-12-11T14:41:41.497Z,17.92
2022-12-11T14:44:15.536Z,19.17
2022-12-11T14:46:58.599Z,20.00
2022-12-11T14:49:40.953Z,25.10
2022-12-11T14:52:20.085Z,18.73
2022-12-11T14:54:53.197Z,17.80
2022-12-11T14:57:26.850Z,22.67
2022-12-11T14:59:55.189Z,19.40
2022-12-11T15:02:26.959Z,21.63
2022-12-11T15:05:00.056Z,15.85
2022-12-11T15:07:27.306Z,20.80
2022-12-11T15:09:54.211Z,16.98
2022-12-11T15:12:22.037Z,22.70
2022-12-11T15:14:53.425Z,18.13
2022-12-11T15:17:22.791Z,17.27
2022-12-11T15:19:53.209Z,20.27
2022-12-11T15:22:25.282Z,20.92
2022-12-11T15:24:54.437Z,16.77
2022-12-11T15:27:35.679Z,19.05
2022-12-11T15:30:27.172Z,19.17
2022-12-11T15:33:09.684Z,18.17
2022-12-11T15:35:39.059Z,19.35
2022-12-11T15:38:06.583Z,18.77
2022-12-11T15:40:33.495Z,19.55
2022-12-11T15:43:03.294Z,17.17
2022-12-11T15:45:30.141Z,16.85
2022-12-11T15:48:00.079Z,19.45
2022-12-11T15:50:28.843Z,18.02
2022-12-11T15:52:57.311Z,17.98
2022-12-11T15:55:27.362Z,18.08
2022-12-11T15:57:58.133Z,14.37
2022-12-11T16:00:27.611Z,19.50
2022-12-11T16:02:57.102Z,19.88
2022-12-11T16:05:27.784Z,16.23
2022-12-11T16:07:59.389Z,16.90
2022-12-11T16:12:59.329Z,20.20
2022-12-11T16:15:27.029Z,20.00
2022-12-11T16:18:03.083Z,16.83
2022-12-11T16:20:31.315Z,16.52
2022-12-11T16:22:59.258Z,16.48
2022-12-11T16:25:27.066Z,19.40
2022-12-11T16:27:58.080Z,19.75
2022-12-11T16:30:25.673Z,20.58
2022-12-11T16:32:53.327Z,19.50
2022-12-11T16:35:21.219Z,21.52
2022-12-11T16:37:52.784Z,19.25
2022-12-11T16:40:20.554Z,18.55
2022-12-11T16:42:49.308Z,20.60
2022-12-11T16:45:22.350Z,18.17
2022-12-11T16:47:49.793Z,21.15
2022-12-11T16:50:17.476Z,20.08
2022-12-11T16:52:45.045Z,25.77
2022-12-11T16:55:13.602Z,22.63
2022-12-11T16:57:41.364Z,20.88
2022-12-11T17:00:12.099Z,17.38
2022-12-11T17:02:39.590Z,21.25
2022-12-11T17:05:06.841Z,17.63
2022-12-11T17:07:34.708Z,15.73
2022-12-11T17:10:02.959Z,20.88
2022-12-11T17:12:30.736Z,24.58
2022-12-11T17:14:57.686Z,18.55
2022-12-11T17:17:25.183Z,20.17
2022-12-11T17:19:52.055Z,22.08
2022-12-11T17:22:19.452Z,20.50
2022-12-11T17:24:46.285Z,23.33
2022-12-11T17:27:13.686Z,20.60
2022-12-11T17:29:40.850Z,18.65
2022-12-11T17:32:08.939Z,22.77
2022-12-11T17:34:38.535Z,22.63
2022-12-11T17:37:06.405Z,20.17
2022-12-11T17:39:33.734Z,19.95
2022-12-11T17:42:00.851Z,19.38
2022-12-11T17:44:30.597Z,18.08
2022-12-11T17:46:58.600Z,17.73
2022-12-11T17:49:26.107Z,20.85
2022-12-11T17:51:55.306Z,17.27
2022-12-11T17:54:24.074Z,21.73
2022-12-11T17:56:51.250Z,18.35
2022-12-11T17:59:18.523Z,18.80
2022-12-11T18:01:45.630Z,24.25
2022-12-11T18:04:13.391Z,18.85
2022-12-11T18:06:40.376Z,20.90
2022-12-11T18:09:16.623Z,20.85
2022-12-11T18:11:43.511Z,19.35
2022-12-11T18:14:16.720Z,16.35
2022-12-11T18:16:44.317Z,18.48
2022-12-11T18:19:11.542Z,19.02
2022-12-11T18:21:41.361Z,23.88
2022-12-11T18:24:09.295Z,21.90
2022-12-11T18:26:37.609Z,21.33
2022-12-11T18:29:04.994Z,24.75
2022-12-11T18:31:31.972Z,21.98
2022-12-11T18:33:59.418Z,23.25
2022-12-11T18:36:26.285Z,26.65
2022-12-11T18:38:53.678Z,28.45
2022-12-11T18:41:21.263Z,25.92
2022-12-11T18:43:48.458Z,24.92
2022-12-11T18:46:19.431Z,27.50
2022-12-11T18:48:48.161Z,27.85
2022-12-11T18:51:22.629Z,27.92
2022-12-11T18:53:49.839Z,29.48
2022-12-11T18:56:18.874Z,31.08
2022-12-11T18:58:46.679Z,25.02
2022-12-11T19:01:20.481Z,25.42
2022-12-11T19:03:47.886Z,33.90
2022-12-11T19:06:21.469Z,30.40
2022-12-11T19:08:48.621Z,31.60
2022-12-11T19:11:22.174Z,29.48
2022-12-11T19:13:50.682Z,26.33
2022-12-11T19:16:22.884Z,25.35
2022-12-11T19:18:50.889Z,25.85
2022-12-11T19:21:18.581Z,26.45
2022-12-11T19:23:46.902Z,27.85
2022-12-11T19:26:16.568Z,26.30
2022-12-11T19:28:44.243Z,31.10
2022-12-11T19:31:17.142Z,27.85
2022-12-11T19:33:46.703Z,27.58
2022-12-11T19:36:19.911Z,23.67
2022-12-11T19:38:47.353Z,24.85
2022-12-11T19:41:26.884Z,26.10
2022-12-11T19:43:55.839Z,24.92
2022-12-11T19:46:23.580Z,24.75
2022-12-11T19:48:53.821Z,26.30
2022-12-11T19:51:36.481Z,27.55
2022-12-11T19:54:05.091Z,27.95
2022-12-11T19:56:32.983Z,27.63
2022-12-11T19:59:02.284Z,27.35
2022-12-11T20:01:31.280Z,25.00
2022-12-11T20:04:03.961Z,25.60
2022-12-11T20:06:33.169Z,34.45
2022-12-11T20:09:01.759Z,29.88
2022-12-11T20:11:28.875Z,29.88
2022-12-11T20:13:56.266Z,29.08
2022-12-11T20:16:45.856Z,25.75
2022-12-11T20:19:10.881Z,31.00
2022-12-11T20:21:37.766Z,27.27
2022-12-11T20:24:05.110Z,32.15
2022-12-11T20:26:35.935Z,26.40
2022-12-11T20:29:07.489Z,29.40
2022-12-11T20:34:02.367Z,26.55
2022-12-11T20:36:29.282Z,29.35
2022-12-11T20:38:56.584Z,26.35
2022-12-11T20:41:25.046Z,24.95
2022-12-11T20:43:54.106Z,25.27
2022-12-11T20:46:25.127Z,22.75
2022-12-11T20:48:54.058Z,21.15
2022-12-11T20:51:25.720Z,20.02
2022-12-11T20:53:59.040Z,20.23
2022-12-11T20:56:29.043Z,23.80
2022-12-11T20:58:57.977Z,26.23
2022-12-11T21:01:27.334Z,26.20
2022-12-11T21:03:54.607Z,21.92
2022-12-11T21:06:25.807Z,25.60
2022-12-11T21:08:53.653Z,27.75
2022-12-11T21:11:21.383Z,26.75
2022-12-11T21:13:51.648Z,27.55
2022-12-11T21:16:19.744Z,25.50
2022-12-11T21:18:48.339Z,24.67
2022-12-11T21:21:16.013Z,26.60
2022-12-11T21:23:43.932Z,26.15
2022-12-11T21:26:11.035Z,22.48
2022-12-11T21:28:38.264Z,21.17
2022-12-11T21:31:08.868Z,23.35
2022-12-11T21:33:36.423Z,28.52
2022-12-11T21:36:05.941Z,24.83
2022-12-11T21:38:33.721Z,21.92
2022-12-11T21:41:30.143Z,24.90
2022-12-11T21:46:44.420Z,23.50
2022-12-11T21:49:12.095Z,24.13
2022-12-11T21:51:46.816Z,27.48
2022-12-11T21:54:17.457Z,20.15
2022-12-11T21:56:45.220Z,19.63
2022-12-11T21:59:14.562Z,23.15
2022-12-11T22:01:46.165Z,20.98
2022-12-11T22:04:14.825Z,21.83
2022-12-11T22:06:43.559Z,23.45
2022-12-11T22:09:12.569Z,27.38
2022-12-11T22:11:40.769Z,20.38
2022-12-11T22:14:08.502Z,21.63
2022-12-11T22:16:35.399Z,22.17
2022-12-11T22:19:02.666Z,27.05
2022-12-11T22:21:29.924Z,26.15
2022-12-11T22:23:57.332Z,22.20
2022-12-11T22:26:26.090Z,21.08
2022-12-11T22:28:54.076Z,22.15
2022-12-11T22:31:22.966Z,27.08
2022-12-11T22:33:53.896Z,28.13
2022-12-11T22:36:22.378Z,21.88
2022-12-11T22:38:50.075Z,30.55
2022-12-11T22:41:22.705Z,25.40
2022-12-11T22:43:50.607Z,28.75
2022-12-11T22:46:19.488Z,19.67
2022-12-11T22:48:46.614Z,29.25
2022-12-11T22:51:13.815Z,28.38
2022-12-11T22:53:40.674Z,29.42
2022-12-11T22:56:09.979Z,23.17
2022-12-11T22:58:37.264Z,24.88
2022-12-11T23:01:15.548Z,23.98
2022-12-11T23:03:42.593Z,23.77
2022-12-11T23:06:13.420Z,22.02
2022-12-11T23:08:41.499Z,24.87
2022-12-11T23:11:19.471Z,24.55
2022-12-11T23:13:46.662Z,23.98
2022-12-11T23:16:14.883Z,23.70
2022-12-11T23:18:42.148Z,23.83
2022-12-11T23:21:11.371Z,25.38
2022-12-11T23:23:38.671Z,22.67
2022-12-11T23:26:08.659Z,25.77
2022-12-11T23:28:36.321Z,23.17
2022-12-11T23:31:04.159Z,25.70
2022-12-11T23:33:31.054Z,21.63
2022-12-11T23:35:59.095Z,23.40
2022-12-11T23:38:26.322Z,21.63
2022-12-11T23:40:53.531Z,24.95
2022-12-11T23:43:20.425Z,24.33
2022-12-11T23:45:47.597Z,22.35
2022-12-11T23:48:14.513Z,19.15
2022-12-11T23:50:42.810Z,21.30
2022-12-11T23:53:10.028Z,20.63
2022-12-11T23:55:42.868Z,23.55
2022-12-11T23:58:10.877Z,22.48
